createdAt,value
2023-04-23T00:02:16.995Z,4.63
2023-04-23T00:04:52.926Z,4.17
2023-04-23T00:07:21.738Z,5.03
2023-04-23T00:09:52.442Z,3.63
2023-04-23T00:12:19.336Z,4.10
2023-04-23T00:14:46.181Z,4.20
2023-04-23T00:17:12.818Z,3.33
2023-04-23T00:19:39.437Z,6.27
2023-04-23T00:22:06.166Z,3.57
2023-04-23T00:24:36.012Z,3.43
2023-04-23T00:27:02.742Z,4.37
2023-04-23T00:29:29.355Z,7.80
2023-04-23T00:31:56.216Z,3.60
2023-04-23T00:34:22.998Z,4.30
2023-04-23T00:36:49.669Z,4.43
2023-04-23T00:39:16.365Z,6.80
2023-04-23T00:41:43.528Z,3.77
2023-04-23T00:44:10.425Z,3.73
2023-04-23T00:46:37.493Z,3.50
2023-04-23T00:49:04.212Z,3.53
2023-04-23T00:51:39.942Z,3.30
2023-04-23T00:54:07.198Z,4.37
2023-04-23T00:56:33.904Z,3.73
2023-04-23T00:59:02.831Z,3.80
2023-04-23T01:01:30.238Z,3.80
2023-04-23T01:03:57.724Z,3.40
2023-04-23T01:06:25.168Z,3.80
2023-04-23T01:08:51.874Z,3.63
2023-04-23T01:11:18.722Z,4.73
2023-04-23T01:13:45.418Z,6.73
2023-04-23T01:16:12.083Z,3.23
2023-04-23T01:18:40.943Z,3.50
2023-04-23T01:21:11.614Z,3.10
2023-04-23T01:23:39.069Z,3.40
2023-04-23T01:26:06.220Z,3.33
2023-04-23T01:28:33.620Z,5.73
2023-04-23T01:31:01.379Z,7.37
2023-04-23T01:33:28.337Z,3.50
2023-04-23T01:35:56.617Z,3.23
2023-04-23T01:38:24.974Z,3.00
2023-04-23T01:40:51.601Z,2.80
2023-04-23T01:43:18.755Z,3.13
2023-04-23T01:45:45.656Z,3.20
2023-04-23T01:48:12.557Z,6.70
2023-04-23T01:50:39.729Z,5.37
2023-04-23T01:53:06.404Z,4.53
2023-04-23T01:55:37.701Z,3.33
2023-04-23T01:58:04.524Z,4.63
2023-04-23T02:00:31.253Z,3.77
2023-04-23T02:02:58.027Z,3.80
2023-04-23T02:05:28.488Z,5.27
2023-04-23T02:07:55.725Z,5.40
2023-04-23T02:10:22.622Z,5.27
2023-04-23T02:12:49.216Z,3.47
2023-04-23T02:15:16.474Z,3.40
2023-04-23T02:17:43.154Z,3.73
2023-04-23T02:20:10.777Z,4.27
2023-04-23T02:22:39.230Z,3.40
2023-04-23T02:25:07.461Z,3.90
2023-04-23T02:27:34.906Z,4.30
2023-04-23T02:30:01.936Z,3.37
2023-04-23T02:32:28.731Z,4.07
2023-04-23T02:34:56.049Z,5.97
2023-04-23T02:37:22.622Z,4.07
2023-04-23T02:39:49.225Z,3.50
2023-04-23T02:42:15.918Z,3.57
2023-04-23T02:44:42.985Z,3.40
2023-04-23T02:47:09.834Z,5.97
2023-04-23T02:49:36.465Z,3.67
2023-04-23T02:52:03.598Z,4.37
2023-04-23T02:54:32.286Z,3.07
2023-04-23T02:56:59.035Z,4.87
2023-04-23T02:59:25.974Z,3.10
2023-04-23T03:01:52.610Z,3.17
2023-04-23T03:04:20.309Z,4.33
2023-04-23T03:06:47.856Z,5.93
2023-04-23T03:09:15.129Z,3.67
2023-04-23T03:11:41.725Z,3.27
2023-04-23T03:14:08.421Z,6.43
2023-04-23T03:16:35.650Z,3.40
2023-04-23T03:19:02.391Z,4.20
2023-04-23T03:21:28.994Z,5.90
2023-04-23T03:23:56.291Z,5.07
2023-04-23T03:26:23.071Z,5.90
2023-04-23T03:28:49.711Z,3.60
2023-04-23T03:31:16.406Z,3.93
2023-04-23T03:33:43.086Z,4.77
2023-04-23T03:36:09.732Z,3.97
2023-04-23T03:38:36.414Z,3.93
2023-04-23T03:41:03.089Z,5.53
2023-04-23T03:43:29.872Z,5.17
2023-04-23T03:45:56.511Z,5.37
2023-04-23T03:48:23.204Z,5.60
2023-04-23T03:50:49.893Z,5.10
2023-04-23T03:53:17.632Z,3.63
2023-04-23T03:55:44.577Z,3.97
2023-04-23T03:58:11.301Z,3.97
2023-04-23T04:00:37.900Z,4.67
2023-04-23T04:03:04.826Z,4.00
2023-04-23T04:05:31.876Z,4.37
2023-04-23T04:07:58.505Z,3.93
2023-04-23T04:10:25.142Z,5.70
2023-04-23T04:12:51.890Z,4.57
2023-04-23T04:15:20.657Z,4.43
2023-04-23T04:17:47.490Z,4.37
2023-04-23T04:20:14.198Z,5.17
2023-04-23T04:22:40.882Z,4.50
2023-04-23T04:25:08.189Z,4.57
2023-04-23T04:27:34.996Z,5.20
2023-04-23T04:30:02.349Z,4.40
2023-04-23T04:32:29.030Z,4.43
2023-04-23T04:34:55.726Z,3.90
2023-04-23T04:37:22.351Z,3.90
2023-04-23T04:39:49.107Z,7.33
2023-04-23T04:42:16.607Z,4.30
2023-04-23T04:44:43.944Z,4.50
2023-04-23T04:47:10.852Z,4.23
2023-04-23T04:49:38.194Z,5.43
2023-04-23T04:52:04.933Z,4.53
2023-04-23T04:54:31.642Z,4.67
2023-04-23T04:56:58.248Z,4.90
2023-04-23T04:59:24.917Z,4.47
2023-04-23T05:01:51.562Z,4.83
2023-04-23T05:04:18.379Z,4.87
2023-04-23T05:06:45.297Z,4.60
2023-04-23T05:09:11.988Z,7.70
2023-04-23T05:11:39.497Z,4.10
2023-04-23T05:14:06.111Z,4.53
2023-04-23T05:16:32.957Z,4.43
2023-04-23T05:18:59.609Z,4.47
2023-04-23T05:21:27.567Z,4.20
2023-04-23T05:23:55.036Z,4.00
2023-04-23T05:26:21.656Z,4.20
2023-04-23T05:28:48.301Z,7.40
2023-04-23T05:31:15.101Z,6.03
2023-04-23T05:33:49.706Z,4.73
2023-04-23T05:36:17.559Z,4.13
2023-04-23T05:38:44.184Z,3.43
2023-04-23T05:41:10.899Z,3.60
2023-04-23T05:43:37.564Z,3.63
2023-04-23T05:46:06.381Z,3.60
2023-04-23T05:48:33.745Z,4.20
2023-04-23T05:51:01.163Z,4.40
2023-04-23T05:53:29.226Z,2.70
2023-04-23T05:55:55.933Z,5.83
2023-04-23T05:58:23.487Z,4.03
2023-04-23T06:00:50.191Z,4.20
2023-04-23T06:03:17.013Z,3.53
2023-04-23T06:05:43.857Z,3.30
2023-04-23T06:08:10.506Z,3.50
2023-04-23T06:10:37.264Z,3.40
2023-04-23T06:13:03.981Z,2.47
2023-04-23T06:15:30.751Z,2.70
2023-04-23T06:17:57.643Z,3.23
2023-04-23T06:20:25.014Z,2.50
2023-04-23T06:22:51.691Z,3.13
2023-04-23T06:25:18.347Z,3.53
2023-04-23T06:27:44.983Z,5.33
2023-04-23T06:30:12.129Z,4.17
2023-04-23T06:32:38.806Z,3.10
2023-04-23T06:35:07.387Z,2.97
2023-04-23T06:37:34.582Z,3.70
2023-04-23T06:40:01.407Z,3.60
2023-04-23T06:42:28.053Z,3.00
2023-04-23T06:44:54.972Z,3.37
2023-04-23T06:47:21.586Z,3.73
2023-04-23T06:49:48.237Z,3.00
2023-04-23T06:52:14.882Z,3.10
2023-04-23T06:54:41.783Z,3.27
2023-04-23T06:57:09.602Z,3.17
2023-04-23T06:59:36.208Z,2.70
2023-04-23T07:02:02.854Z,3.10
2023-04-23T07:04:29.575Z,3.10
2023-04-23T07:06:56.431Z,2.97
2023-04-23T07:09:23.316Z,3.10
2023-04-23T07:11:50.946Z,3.13
2023-04-23T07:14:18.204Z,2.70
2023-04-23T07:16:44.918Z,2.90
2023-04-23T07:19:11.623Z,3.47
2023-04-23T07:21:38.420Z,2.40
2023-04-23T07:24:07.152Z,2.73
2023-04-23T07:26:34.814Z,2.80
2023-04-23T07:29:01.945Z,3.87
2023-04-23T07:31:28.664Z,2.77
2023-04-23T07:33:56.189Z,5.20
2023-04-23T07:36:22.887Z,3.23
2023-04-23T07:38:50.848Z,3.27
2023-04-23T07:41:17.811Z,3.67
2023-04-23T07:43:44.588Z,2.70
2023-04-23T07:46:11.288Z,2.83
2023-04-23T07:48:38.009Z,2.67
2023-04-23T07:51:06.348Z,2.37
2023-04-23T07:53:33.161Z,2.43
2023-04-23T07:56:00.504Z,4.80
2023-04-23T07:58:27.323Z,2.70
2023-04-23T08:00:54.326Z,3.30
2023-04-23T08:03:21.568Z,2.30
2023-04-23T08:05:48.397Z,5.90
2023-04-23T08:08:15.054Z,3.93
2023-04-23T08:10:41.926Z,2.80
2023-04-23T08:13:09.018Z,2.43
2023-04-23T08:15:35.817Z,3.93
2023-04-23T08:18:04.201Z,3.43
2023-04-23T08:20:32.179Z,3.07
2023-04-23T08:22:59.027Z,2.33
2023-04-23T08:25:25.692Z,2.07
2023-04-23T08:27:52.486Z,2.43
2023-04-23T08:30:19.218Z,2.37
2023-04-23T08:32:50.144Z,2.30
2023-04-23T08:35:16.977Z,2.20
2023-04-23T08:37:43.658Z,3.67
2023-04-23T08:40:10.606Z,3.33
2023-04-23T08:42:45.386Z,4.07
2023-04-23T08:45:13.140Z,2.00
2023-04-23T08:47:44.248Z,3.70
2023-04-23T08:50:13.202Z,2.40
2023-04-23T08:52:52.517Z,2.43
2023-04-23T08:55:20.564Z,1.67
2023-04-23T08:57:48.008Z,2.73
2023-04-23T09:00:16.515Z,1.33
2023-04-23T09:02:45.417Z,1.20
2023-04-23T09:05:12.879Z,1.10
2023-04-23T09:07:40.367Z,0.87
2023-04-23T09:10:08.836Z,1.20
2023-04-23T09:12:36.517Z,1.37
2023-04-23T09:15:10.929Z,2.30
2023-04-23T09:17:43.941Z,0.93
2023-04-23T09:20:12.318Z,1.00
2023-04-23T09:22:52.682Z,1.33
2023-04-23T09:25:21.906Z,0.97
2023-04-23T09:27:51.477Z,0.90
2023-04-23T09:30:19.677Z,0.90
2023-04-23T09:32:47.043Z,1.03
2023-04-23T09:35:15.584Z,1.20
2023-04-23T09:37:50.047Z,1.60
2023-04-23T09:40:22.505Z,1.40
2023-04-23T09:42:50.884Z,1.33
2023-04-23T09:45:17.792Z,1.00
2023-04-23T09:47:55.530Z,1.40
2023-04-23T09:50:37.035Z,1.17
2023-04-23T09:53:04.769Z,1.53
2023-04-23T09:55:35.718Z,1.00
2023-04-23T09:58:04.203Z,1.27
2023-04-23T10:00:38.407Z,2.00
2023-04-23T10:03:07.324Z,1.20
2023-04-23T10:08:13.748Z,1.10
2023-04-23T10:10:56.745Z,0.97
2023-04-23T10:13:27.591Z,1.20
2023-04-23T10:15:58.992Z,1.37
2023-04-23T10:18:33.093Z,1.77
2023-04-23T10:21:02.497Z,1.83
2023-04-23T10:23:29.752Z,1.10
2023-04-23T10:25:57.993Z,2.00
2023-04-23T10:28:31.837Z,2.37
2023-04-23T10:30:59.681Z,1.47
2023-04-23T10:33:30.892Z,1.30
2023-04-23T10:36:01.676Z,2.13
2023-04-23T10:38:28.584Z,1.10
2023-04-23T10:40:58.572Z,1.30
2023-04-23T10:43:25.615Z,1.43
2023-04-23T10:45:52.282Z,1.50
2023-04-23T10:48:20.051Z,1.90
2023-04-23T10:51:09.138Z,2.20
2023-04-23T10:53:36.399Z,1.13
2023-04-23T10:56:10.113Z,2.50
2023-04-23T10:58:51.233Z,1.10
2023-04-23T11:01:19.063Z,1.40
2023-04-23T11:03:47.593Z,2.43
2023-04-23T11:06:51.545Z,1.40
2023-04-23T11:09:46.000Z,1.23
2023-04-23T11:12:24.835Z,1.70
2023-04-23T11:14:54.594Z,2.10
2023-04-23T11:17:28.152Z,1.30
2023-04-23T11:20:04.026Z,1.57
2023-04-23T11:22:44.452Z,1.50
2023-04-23T11:25:15.705Z,1.43
2023-04-23T11:27:44.278Z,1.60
2023-04-23T11:30:30.331Z,1.63
2023-04-23T11:32:59.803Z,1.97
2023-04-23T11:35:33.456Z,2.33
2023-04-23T11:38:00.119Z,1.63
2023-04-23T11:40:30.346Z,1.23
2023-04-23T11:42:57.659Z,1.10
2023-04-23T11:45:29.326Z,1.20
2023-04-23T11:47:58.254Z,4.70
2023-04-23T11:50:30.448Z,1.30
2023-04-23T11:52:57.386Z,1.50
2023-04-23T11:55:24.120Z,1.10
2023-04-23T11:57:52.539Z,1.53
2023-04-23T12:00:24.000Z,1.20
2023-04-23T12:03:01.927Z,1.20
2023-04-23T12:05:35.194Z,1.37
2023-04-23T12:08:12.516Z,1.60
2023-04-23T12:10:52.370Z,2.30
2023-04-23T12:13:27.924Z,1.40
2023-04-23T12:16:03.008Z,3.17
2023-04-23T12:18:42.188Z,2.77
2023-04-23T12:21:13.744Z,1.57
2023-04-23T12:23:44.357Z,1.23
2023-04-23T12:26:12.433Z,2.07
2023-04-23T12:28:51.672Z,1.23
2023-04-23T12:31:28.952Z,1.10
2023-04-23T12:34:06.071Z,2.20
2023-04-23T12:36:33.850Z,1.30
2023-04-23T12:39:38.927Z,0.97
2023-04-23T12:42:08.050Z,1.23
2023-04-23T12:44:36.321Z,0.90
2023-04-23T12:47:15.054Z,1.60
2023-04-23T12:49:43.153Z,0.80
2023-04-23T12:52:12.819Z,0.87
2023-04-23T12:54:40.854Z,2.00
2023-04-23T12:57:11.197Z,1.40
2023-04-23T12:59:38.264Z,0.63
2023-04-23T13:02:06.705Z,0.83
2023-04-23T13:04:35.543Z,0.80
2023-04-23T13:07:02.474Z,1.20
2023-04-23T13:09:30.170Z,0.90
2023-04-23T13:11:57.255Z,0.80
2023-04-23T13:14:23.972Z,0.97
2023-04-23T13:16:50.890Z,0.70
2023-04-23T13:19:17.824Z,0.80
2023-04-23T13:21:45.280Z,1.63
2023-04-23T13:24:12.015Z,0.80
2023-04-23T13:26:38.861Z,0.90
2023-04-23T13:29:06.207Z,0.70
2023-04-23T13:31:34.109Z,0.70
2023-04-23T13:34:02.788Z,1.77
2023-04-23T13:36:29.609Z,0.73
2023-04-23T13:38:56.475Z,0.80
2023-04-23T13:41:23.120Z,1.00
2023-04-23T13:43:50.178Z,1.67
2023-04-23T13:46:18.890Z,1.83
2023-04-23T13:48:45.731Z,0.87
2023-04-23T13:51:32.616Z,0.90
2023-04-23T13:53:59.232Z,2.80
2023-04-23T13:56:27.057Z,0.93
2023-04-23T13:59:02.088Z,1.00
2023-04-23T14:01:35.122Z,1.57
2023-04-23T14:04:04.163Z,0.87
2023-04-23T14:06:31.608Z,1.97
2023-04-23T14:08:58.355Z,0.80
2023-04-23T14:11:25.241Z,0.90
2023-04-23T14:13:51.936Z,0.80
2023-04-23T14:16:20.118Z,1.00
2023-04-23T14:18:47.435Z,1.00
2023-04-23T14:21:16.283Z,0.90
2023-04-23T14:24:16.832Z,1.33
2023-04-23T14:26:49.375Z,1.00
2023-04-23T14:29:36.239Z,0.90
2023-04-23T14:32:02.948Z,1.00
2023-04-23T14:34:29.715Z,2.07
2023-04-23T14:36:56.499Z,0.80
2023-04-23T14:39:23.490Z,1.23
2023-04-23T14:41:50.294Z,1.30
2023-04-23T14:44:17.050Z,0.80
2023-04-23T14:46:44.231Z,1.80
2023-04-23T14:49:11.261Z,0.80
2023-04-23T14:51:38.075Z,0.93
2023-04-23T14:54:04.993Z,0.90
2023-04-23T14:56:31.786Z,1.00
2023-04-23T14:58:58.432Z,0.90
2023-04-23T15:01:25.153Z,2.47
2023-04-23T15:03:53.435Z,0.80
2023-04-23T15:06:20.360Z,0.70
2023-04-23T15:08:47.035Z,1.20
2023-04-23T15:11:13.892Z,1.03
2023-04-23T15:13:56.235Z,0.97
2023-04-23T15:19:27.548Z,0.90
2023-04-23T15:21:54.254Z,1.33
2023-04-23T15:24:20.892Z,1.00
2023-04-23T15:26:49.495Z,1.97
2023-04-23T15:29:16.417Z,0.63
2023-04-23T15:31:43.256Z,0.90
2023-04-23T15:34:12.129Z,1.10
2023-04-23T15:36:39.042Z,1.53
2023-04-23T15:39:09.316Z,0.70
2023-04-23T15:41:39.542Z,1.13
2023-04-23T15:44:10.673Z,0.80
2023-04-23T15:46:37.451Z,0.90
2023-04-23T15:49:05.555Z,0.80
2023-04-23T15:51:32.924Z,0.80
2023-04-23T15:54:00.669Z,0.90
2023-04-23T15:56:27.392Z,1.33
2023-04-23T15:58:54.105Z,0.90
2023-04-23T16:01:24.776Z,1.60
2023-04-23T16:04:08.774Z,0.73
2023-04-23T16:06:37.417Z,0.87
2023-04-23T16:09:07.173Z,1.07
2023-04-23T16:11:42.311Z,0.97
2023-04-23T16:14:12.344Z,0.90
2023-04-23T16:16:46.404Z,0.80
2023-04-23T16:19:14.770Z,1.10
2023-04-23T16:21:43.596Z,1.13
2023-04-23T16:24:15.718Z,2.10
2023-04-23T16:26:43.655Z,1.20
2023-04-23T16:29:21.314Z,1.13
2023-04-23T16:31:49.457Z,0.90
2023-04-23T16:34:18.796Z,1.43
2023-04-23T16:36:45.626Z,1.20
2023-04-23T16:39:12.387Z,0.93
2023-04-23T16:41:39.098Z,1.87
2023-04-23T16:44:05.960Z,0.90
2023-04-23T16:46:32.818Z,2.30
2023-04-23T16:48:59.719Z,1.53
2023-04-23T16:51:26.950Z,1.20
2023-04-23T16:53:53.961Z,2.10
2023-04-23T16:56:21.336Z,1.80
2023-04-23T16:58:48.069Z,1.07
2023-04-23T17:01:16.532Z,0.90
2023-04-23T17:03:46.458Z,1.63
2023-04-23T17:06:28.202Z,1.03
2023-04-23T17:08:56.031Z,1.13
2023-04-23T17:11:23.077Z,1.03
2023-04-23T17:13:50.767Z,1.30
2023-04-23T17:16:17.759Z,1.80
2023-04-23T17:18:44.537Z,2.53
2023-04-23T17:21:11.602Z,1.57
2023-04-23T17:23:41.344Z,3.17
2023-04-23T17:26:08.050Z,1.43
2023-04-23T17:28:34.856Z,1.20
2023-04-23T17:31:03.328Z,1.37
2023-04-23T17:33:30.091Z,1.30
2023-04-23T17:35:57.110Z,1.67
2023-04-23T17:38:24.685Z,1.63
2023-04-23T17:40:52.700Z,1.40
2023-04-23T17:43:19.948Z,2.07
2023-04-23T17:45:47.626Z,1.27
2023-04-23T17:48:15.544Z,1.40
2023-04-23T17:50:43.230Z,1.33
2023-04-23T17:53:10.550Z,0.87
2023-04-23T17:55:37.359Z,1.63
2023-04-23T17:58:07.577Z,1.50
2023-04-23T18:00:39.469Z,1.93
2023-04-23T18:03:07.240Z,2.07
2023-04-23T18:05:34.614Z,1.00
2023-04-23T18:08:01.686Z,0.70
2023-04-23T18:10:29.839Z,1.27
2023-04-23T18:12:56.832Z,1.03
2023-04-23T18:15:25.549Z,3.23
2023-04-23T18:17:54.525Z,1.27
2023-04-23T18:20:24.877Z,1.43
2023-04-23T18:22:54.199Z,1.20
2023-04-23T18:25:21.056Z,2.10
2023-04-23T18:27:48.544Z,1.30
2023-04-23T18:30:15.479Z,5.67
2023-04-23T18:32:47.215Z,1.83
2023-04-23T18:35:14.092Z,1.50
2023-04-23T18:37:54.639Z,1.20
2023-04-23T18:40:21.329Z,1.30
2023-04-23T18:42:49.723Z,2.07
2023-04-23T18:45:16.555Z,2.87
2023-04-23T18:47:50.433Z,2.20
2023-04-23T18:50:49.826Z,2.50
2023-04-23T18:53:16.543Z,4.20
2023-04-23T18:55:43.220Z,1.50
2023-04-23T18:58:09.895Z,2.00
2023-04-23T19:00:36.614Z,4.90
2023-04-23T19:03:12.040Z,5.43
2023-04-23T19:05:46.624Z,5.37
2023-04-23T19:08:13.577Z,2.17
2023-04-23T19:10:40.499Z,3.13
2023-04-23T19:13:09.419Z,4.50
2023-04-23T19:15:36.280Z,2.53
2023-04-23T19:18:03.084Z,2.63
2023-04-23T19:20:31.095Z,4.10
2023-04-23T19:22:58.691Z,1.70
2023-04-23T19:25:25.385Z,3.03
2023-04-23T19:27:52.088Z,3.10
2023-04-23T19:30:18.789Z,3.00
2023-04-23T19:32:45.603Z,3.20
2023-04-23T19:35:12.571Z,1.97
2023-04-23T19:37:39.182Z,1.93
2023-04-23T19:40:06.988Z,4.50
2023-04-23T19:42:33.704Z,1.70
2023-04-23T19:45:00.373Z,1.87
2023-04-23T19:47:27.427Z,2.27
2023-04-23T19:49:54.398Z,1.97
2023-04-23T19:52:25.340Z,1.40
2023-04-23T19:54:52.115Z,3.87
2023-04-23T19:57:19.660Z,2.73
2023-04-23T19:59:46.459Z,3.30
2023-04-23T20:02:13.431Z,1.17
2023-04-23T20:04:41.285Z,4.50
2023-04-23T20:07:08.571Z,4.33
2023-04-23T20:09:35.795Z,2.50
2023-04-23T20:12:02.858Z,2.50
2023-04-23T20:14:29.949Z,1.40
2023-04-23T20:16:57.312Z,3.87
2023-04-23T20:19:26.082Z,1.70
2023-04-23T20:21:53.507Z,1.87
2023-04-23T20:24:23.032Z,1.50
2023-04-23T20:26:49.811Z,1.83
2023-04-23T20:29:17.878Z,1.77
2023-04-23T20:31:49.253Z,2.17
2023-04-23T20:34:16.947Z,2.80
2023-04-23T20:36:47.068Z,2.50
2023-04-23T20:39:13.967Z,2.13
2023-04-23T20:41:40.935Z,2.73
2023-04-23T20:44:08.885Z,3.03
2023-04-23T20:46:36.658Z,4.00
2023-04-23T20:49:04.340Z,1.87
2023-04-23T20:51:34.692Z,1.57
2023-04-23T20:54:01.785Z,1.23
2023-04-23T20:56:31.634Z,3.93
2023-04-23T20:58:58.565Z,1.73
2023-04-23T21:01:25.685Z,1.53
2023-04-23T21:03:53.692Z,2.33
2023-04-23T21:06:21.906Z,3.50
2023-04-23T21:08:48.724Z,2.83
2023-04-23T21:11:17.577Z,1.87
2023-04-23T21:13:47.908Z,2.63
2023-04-23T21:16:15.161Z,1.10
2023-04-23T21:18:43.733Z,1.47
2023-04-23T21:21:10.611Z,4.03
2023-04-23T21:23:37.239Z,1.90
2023-04-23T21:26:03.988Z,2.50
2023-04-23T21:28:31.784Z,1.50
2023-04-23T21:31:06.662Z,3.23
2023-04-23T21:33:33.381Z,3.20
2023-04-23T21:36:00.072Z,1.57
2023-04-23T21:38:26.762Z,1.50
2023-04-23T21:40:53.615Z,3.00
2023-04-23T21:43:20.381Z,2.87
2023-04-23T21:45:47.085Z,2.63
2023-04-23T21:48:14.881Z,2.23
2023-04-23T21:50:41.896Z,2.00
2023-04-23T21:53:08.674Z,2.23
2023-04-23T21:55:35.634Z,2.27
2023-04-23T22:00:32.022Z,1.60
2023-04-23T22:02:58.930Z,3.63
2023-04-23T22:05:28.343Z,1.77
2023-04-23T22:07:55.612Z,2.00
2023-04-23T22:10:22.698Z,2.40
2023-04-23T22:12:49.991Z,2.33
2023-04-23T22:15:18.367Z,2.53
2023-04-23T22:17:50.555Z,1.37
2023-04-23T22:20:19.070Z,2.03
2023-04-23T22:22:46.230Z,1.67
2023-04-23T22:25:13.135Z,3.17
2023-04-23T22:27:40.953Z,2.47
2023-04-23T22:30:09.522Z,1.40
2023-04-23T22:32:37.550Z,1.47
2023-04-23T22:35:05.307Z,1.30
2023-04-23T22:37:32.691Z,1.57
2023-04-23T22:40:00.063Z,1.97
2023-04-23T22:42:26.954Z,1.37
2023-04-23T22:44:53.629Z,2.00
2023-04-23T22:47:20.341Z,1.50
2023-04-23T22:49:47.195Z,2.13
2023-04-23T22:52:16.622Z,3.77
2023-04-23T22:54:43.965Z,2.73
2023-04-23T22:57:11.701Z,2.00
2023-04-23T22:59:41.751Z,1.50
2023-04-23T23:02:08.623Z,1.50
2023-04-23T23:04:38.423Z,2.00
2023-04-23T23:07:05.977Z,1.20
2023-04-23T23:09:32.982Z,2.27
2023-04-23T23:12:02.286Z,1.57
2023-04-23T23:14:29.554Z,2.00
2023-04-23T23:16:57.082Z,1.60
2023-04-23T23:19:27.264Z,1.50
2023-04-23T23:21:54.001Z,1.77
2023-04-23T23:24:21.984Z,2.60
2023-04-23T23:26:48.831Z,2.30
2023-04-23T23:29:15.467Z,1.33
2023-04-23T23:31:42.280Z,1.70
2023-04-23T23:34:08.994Z,1.40
2023-04-23T23:36:35.788Z,1.73
2023-04-23T23:39:02.408Z,2.03
2023-04-23T23:41:29.180Z,2.93
2023-04-23T23:43:56.146Z,2.80
2023-04-23T23:46:23.077Z,1.87
2023-04-23T23:48:49.862Z,2.20
2023-04-23T23:51:16.632Z,1.30
2023-04-23T23:53:43.319Z,3.03
2023-04-23T23:56:09.960Z,1.47
2023-04-23T23:58:36.633Z,2.00
